Time;durP1;ratioP1;P1;durP2;ratioP2;P2;SDS_P1;SDS_P2;PMS_P1;PMS_P2;Temp;Humidity;BMP_temperature;BMP_pressure;BME280_temperature;BME280_humidity;BME280_pressure;Samples;Min_cycle;Max_cycle;Signal;HPM_P1;HPM_P2
2022/11/28 00:01:44;;;;;;;9.10;5.20;;;6.60;99.90;;;;;;5058534;28;20033;-67
2022/11/28 00:04:10;;;;;;;9.52;5.32;;;6.50;99.90;;;;;;5050701;28;20037;-66
2022/11/28 00:06:44;;;;;;;7.95;5.15;;;6.50;99.90;;;;;;5034295;28;20045;-67
2022/11/28 00:09:10;;;;;;;7.80;5.10;;;6.50;99.90;;;;;;5052196;28;20049;-67
2022/11/28 00:11:39;;;;;;;8.85;4.95;;;6.50;99.90;;;;;;5050443;28;20083;-67
2022/11/28 00:14:05;;;;;;;7.75;4.60;;;6.50;99.90;;;;;;5051610;28;20045;-67
2022/11/28 00:16:31;;;;;;;11.45;4.85;;;6.60;99.90;;;;;;5051862;28;20037;-67
2022/11/28 00:18:58;;;;;;;8.60;5.60;;;6.60;99.90;;;;;;5052385;28;20096;-67
2022/11/28 00:21:24;;;;;;;10.30;5.25;;;6.50;99.90;;;;;;5051904;28;20040;-67
2022/11/28 00:23:50;;;;;;;9.43;5.20;;;6.60;99.90;;;;;;5051152;28;20045;-67
2022/11/28 00:26:23;;;;;;;7.63;5.43;;;6.60;99.90;;;;;;5051976;28;20670;-66
2022/11/28 00:28:49;;;;;;;10.00;4.95;;;6.60;99.90;;;;;;5034091;28;20048;-67
2022/11/28 00:31:17;;;;;;;7.35;4.85;;;6.60;99.90;;;;;;5050521;28;20429;-67
2022/11/28 00:33:42;;;;;;;6.80;5.10;;;6.60;99.90;;;;;;5051423;28;20032;-67
2022/11/28 00:36:09;;;;;;;11.75;5.40;;;6.60;99.90;;;;;;5051343;28;20043;-67
2022/11/28 00:38:34;;;;;;;9.55;5.95;;;6.70;99.90;;;;;;5051168;28;20531;-66
2022/11/28 00:41:09;;;;;;;8.90;5.22;;;6.60;99.90;;;;;;5051838;28;20041;-67
2022/11/28 00:43:35;;;;;;;10.25;5.80;;;6.70;99.90;;;;;;5051490;28;20044;-66
2022/11/28 00:46:01;;;;;;;7.05;5.28;;;6.70;99.90;;;;;;5050672;28;20119;-66
2022/11/28 00:48:27;;;;;;;8.45;5.50;;;6.70;99.90;;;;;;5051646;28;20060;-66
2022/11/28 00:50:53;;;;;;;8.88;5.68;;;6.70;99.90;;;;;;5051524;28;20033;-66
2022/11/28 00:53:18;;;;;;;8.93;5.47;;;6.70;99.90;;;;;;5051347;28;20130;-66
2022/11/28 00:55:44;;;;;;;11.65;5.20;;;6.70;99.90;;;;;;5051762;28;20044;-67
2022/11/28 00:58:10;;;;;;;9.05;5.13;;;6.70;99.90;;;;;;5071467;28;20508;-66
2022/11/28 01:00:35;;;;;;;8.07;5.15;;;6.70;99.90;;;;;;5071546;28;20451;-67
2022/11/28 01:03:01;;;;;;;8.98;5.28;;;6.70;99.90;;;;;;5071264;28;20039;-67
2022/11/28 01:05:27;;;;;;;8.10;5.15;;;6.70;99.90;;;;;;5070290;28;20052;-67
2022/11/28 01:07:52;;;;;;;6.10;4.38;;;6.70;99.90;;;;;;5053147;28;20047;-67
2022/11/28 01:10:18;;;;;;;7.50;5.43;;;6.70;99.90;;;;;;5053255;28;20100;-67
2022/11/28 01:12:43;;;;;;;8.52;5.28;;;6.70;99.90;;;;;;5071392;28;20044;-67
2022/11/28 01:15:11;;;;;;;9.60;5.55;;;6.80;99.90;;;;;;5070213;28;20546;-67
2022/11/28 01:17:38;;;;;;;9.68;5.13;;;6.70;99.90;;;;;;5071080;28;20055;-67
2022/11/28 01:20:06;;;;;;;7.15;5.25;;;6.80;99.90;;;;;;5071142;28;20116;-67
2022/11/28 01:22:32;;;;;;;7.95;5.35;;;6.80;99.90;;;;;;5071240;28;20068;-67
2022/11/28 01:24:58;;;;;;;7.25;4.80;;;6.80;99.90;;;;;;5070130;28;20643;-66
2022/11/28 01:27:23;;;;;;;9.88;5.00;;;6.80;99.90;;;;;;5071166;28;20059;-66
2022/11/28 01:29:49;;;;;;;6.60;5.07;;;6.80;99.90;;;;;;5070940;28;20401;-67
2022/11/28 01:32:15;;;;;;;7.60;5.20;;;6.80;99.90;;;;;;5070941;28;20089;-67
2022/11/28 01:34:40;;;;;;;6.13;4.90;;;6.80;99.90;;;;;;5069957;28;20489;-67
2022/11/28 01:37:06;;;;;;;8.63;5.63;;;6.80;99.90;;;;;;5071039;28;20116;-67
2022/11/28 01:39:31;;;;;;;8.27;5.38;;;6.80;99.90;;;;;;5070993;28;20039;-67
2022/11/28 01:41:57;;;;;;;7.63;5.22;;;6.80;99.90;;;;;;5070789;28;20033;-67
2022/11/28 01:44:22;;;;;;;11.30;5.93;;;6.80;99.90;;;;;;5069708;28;20044;-67
2022/11/28 01:46:48;;;;;;;9.80;5.50;;;6.90;99.90;;;;;;5070754;28;20036;-67
2022/11/28 01:49:19;;;;;;;6.35;4.97;;;6.90;99.90;;;;;;5071962;28;20403;-66
2022/11/28 01:51:48;;;;;;;8.77;5.25;;;6.90;99.90;;;;;;5075094;28;20036;-66
2022/11/28 01:54:17;;;;;;;11.38;5.32;;;6.90;99.90;;;;;;5072805;28;20058;-67
2022/11/28 01:56:59;;;;;;;7.78;5.13;;;6.90;99.90;;;;;;5074795;28;20044;-67
2022/11/28 01:59:27;;;;;;;9.82;6.18;;;6.90;99.90;;;;;;5073442;28;20440;-67
2022/11/28 02:01:52;;;;;;;10.65;5.68;;;6.90;99.90;;;;;;5074717;28;20041;-67
2022/11/28 02:04:18;;;;;;;9.13;5.72;;;7.00;99.90;;;;;;5073755;28;20090;-66
2022/11/28 02:06:44;;;;;;;10.30;5.70;;;7.00;99.90;;;;;;5074491;28;20039;-67
2022/11/28 02:09:14;;;;;;;10.88;5.57;;;6.90;99.90;;;;;;5074585;28;20050;-67
2022/11/28 02:12:10;;;;;;;7.57;5.65;;;7.00;99.90;;;;;;5073457;28;20041;-67
2022/11/28 02:15:04;;;;;;;10.52;6.13;;;7.00;99.90;;;;;;5073637;28;20116;-67
2022/11/28 02:17:48;;;;;;;10.38;6.25;;;7.00;99.90;;;;;;5074511;28;20044;-66
2022/11/28 02:20:50;;;;;;;9.27;5.78;;;7.10;99.90;;;;;;5074619;28;20047;-66
2022/11/28 02:23:35;;;;;;;7.00;5.22;;;7.00;99.90;;;;;;5074180;28;20504;-66
2022/11/28 02:26:48;;;;;;;11.52;5.72;;;7.00;99.90;;;;;;5073728;28;20045;-66
2022/11/28 02:29:13;;;;;;;11.32;5.47;;;7.00;99.90;;;;;;5031415;28;20048;-67
2022/11/28 02:31:57;;;;;;;8.73;5.63;;;7.00;99.90;;;;;;5031787;28;20042;-67
2022/11/28 02:34:29;;;;;;;8.07;5.85;;;7.10;99.90;;;;;;5030615;28;20175;-67
2022/11/28 02:37:22;;;;;;;10.32;5.82;;;7.10;99.90;;;;;;5031802;28;20038;-66
2022/11/28 02:39:59;;;;;;;;;;;7.10;99.90;;;;;;4991886;28;20794;-67
2022/11/28 02:42:46;;;;;;;9.00;5.30;;;7.10;99.90;;;;;;5031524;28;19921;-67
2022/11/28 02:45:17;;;;;;;7.93;5.03;;;7.10;99.90;;;;;;5030540;28;20045;-66
2022/11/28 02:47:49;;;;;;;8.57;5.53;;;7.10;99.90;;;;;;5031253;28;20506;-66
2022/11/28 02:50:46;;;;;;;12.97;5.33;;;7.20;99.90;;;;;;5031361;28;20041;-66
2022/11/28 02:53:17;;;;;;;10.45;5.47;;;7.20;99.90;;;;;;5011681;28;20060;-67
2022/11/28 02:55:43;;;;;;;8.68;6.00;;;7.20;99.90;;;;;;5030281;28;20143;-66
2022/11/28 02:58:10;;;;;;;14.43;6.45;;;7.20;99.90;;;;;;5031229;28;20037;-66
2022/11/28 03:00:38;;;;;;;10.25;6.25;;;7.20;99.90;;;;;;5065598;28;20080;-66
2022/11/28 03:03:26;;;;;;;9.70;5.95;;;7.20;99.90;;;;;;5073710;28;20416;-66
2022/11/28 03:06:13;;;;;;;8.90;5.43;;;7.20;99.90;;;;;;5072936;28;20080;-66
2022/11/28 03:09:10;;;;;;;7.95;5.70;;;7.20;99.90;;;;;;5073459;28;20055;-68
2022/11/28 03:12:15;;;;;;;10.00;6.03;;;7.20;99.90;;;;;;5072224;28;20414;-67
2022/11/28 03:14:58;;;;;;;13.88;5.78;;;7.20;99.90;;;;;;5072705;28;20123;-67
2022/11/28 03:17:32;;;;;;;8.40;5.70;;;7.30;99.90;;;;;;5073412;28;20080;-66
2022/11/28 03:19:58;;;;;;;11.43;6.00;;;7.30;99.90;;;;;;5073535;28;20082;-67
2022/11/28 03:22:34;;;;;;;9.30;6.28;;;7.30;99.90;;;;;;5073222;28;20044;-67
2022/11/28 03:25:15;;;;;;;10.85;6.43;;;7.30;99.90;;;;;;5072291;28;20045;-67
2022/11/28 03:27:49;;;;;;;13.43;6.75;;;7.30;99.90;;;;;;5073188;28;20409;-67
2022/11/28 03:30:30;;;;;;;11.63;7.18;;;7.30;99.90;;;;;;5073426;28;20032;-67
2022/11/28 03:32:59;;;;;;;8.82;5.70;;;7.30;99.90;;;;;;5073310;28;20428;-67
2022/11/28 03:35:29;;;;;;;17.27;6.30;;;7.40;99.90;;;;;;5070972;28;20068;-66
2022/11/28 03:38:06;;;;;;;7.75;5.88;;;7.40;99.90;;;;;;5072855;28;20044;-67
2022/11/28 03:40:38;;;;;;;11.68;6.50;;;7.40;99.90;;;;;;5073043;28;20041;-66
2022/11/28 03:43:09;;;;;;;18.83;7.03;;;7.50;99.90;;;;;;5072916;28;20048;-67
2022/11/28 03:45:42;;;;;;;11.30;6.60;;;7.50;99.90;;;;;;5070914;28;20048;-67
2022/11/28 03:48:14;;;;;;;11.57;6.63;;;7.50;99.90;;;;;;5072855;28;20044;-67
2022/11/28 03:50:46;;;;;;;10.70;6.88;;;7.50;99.90;;;;;;5072943;28;20051;-67
2022/11/28 03:53:22;;;;;;;10.65;7.20;;;7.50;99.90;;;;;;5072729;28;20037;-67
2022/11/28 03:55:53;;;;;;;13.35;6.55;;;7.50;99.90;;;;;;5071761;28;20049;-67
2022/11/28 03:58:25;;;;;;;10.63;6.72;;;7.50;99.90;;;;;;5072139;28;20044;-67
2022/11/28 04:01:00;;;;;;;13.82;7.40;;;7.50;99.90;;;;;;5072467;28;20036;-67
2022/11/28 04:03:38;;;;;;;13.60;6.93;;;7.50;99.90;;;;;;5071042;28;20040;-67
2022/11/28 04:06:23;;;;;;;12.77;7.60;;;7.60;99.90;;;;;;5071632;28;20489;-66
2022/11/28 04:09:02;;;;;;;14.00;7.57;;;7.50;99.90;;;;;;5070974;28;20070;-67
2022/11/28 04:11:40;;;;;;;14.27;7.82;;;7.50;99.90;;;;;;5070555;28;20040;-67
2022/11/28 04:14:22;;;;;;;11.88;7.75;;;7.50;99.90;;;;;;5071266;28;20068;-67
2022/11/28 04:16:56;;;;;;;13.85;8.45;;;7.50;99.90;;;;;;5072539;28;20113;-67
2022/11/28 04:19:31;;;;;;;13.68;8.43;;;7.50;99.90;;;;;;5072326;28;20041;-67
2022/11/28 04:22:09;;;;;;;12.30;9.02;;;7.50;99.90;;;;;;5072412;28;20436;-67
2022/11/28 04:24:44;;;;;;;14.40;8.20;;;7.50;99.90;;;;;;5071407;28;20044;-67
2022/11/28 04:27:14;;;;;;;15.30;9.23;;;7.60;99.90;;;;;;5071699;28;20048;-67
2022/11/28 04:29:49;;;;;;;15.00;9.75;;;7.60;99.90;;;;;;5070585;28;20044;-66
2022/11/28 04:32:18;;;;;;;15.65;9.73;;;7.50;99.90;;;;;;5070469;28;20043;-67
2022/11/28 04:34:46;;;;;;;13.90;8.65;;;7.60;99.90;;;;;;5071223;28;20082;-67
2022/11/28 04:37:14;;;;;;;17.00;9.75;;;7.60;99.90;;;;;;5071556;28;20606;-67
2022/11/28 04:39:43;;;;;;;15.52;9.98;;;7.60;99.90;;;;;;5071944;28;20047;-67
2022/11/28 04:42:23;;;;;;;16.45;9.70;;;7.50;99.90;;;;;;5070102;28;20115;-66
2022/11/28 04:45:05;;;;;;;18.45;8.77;;;7.60;99.90;;;;;;5071036;28;20428;-67
2022/11/28 04:47:30;;;;;;;26.13;10.48;;;7.60;99.90;;;;;;5071560;28;20048;-67
2022/11/28 04:49:56;;;;;;;19.02;9.80;;;7.60;99.90;;;;;;5070316;28;20046;-66
2022/11/28 04:52:52;;;;;;;16.33;10.70;;;7.60;99.90;;;;;;5071381;28;20427;-67
2022/11/28 04:55:40;;;;;;;14.68;10.00;;;7.60;99.90;;;;;;5070753;28;20119;-67
2022/11/28 04:58:14;;;;;;;14.57;9.52;;;7.60;99.90;;;;;;5071359;28;20495;-67
2022/11/28 05:00:41;;;;;;;16.13;9.80;;;7.60;99.90;;;;;;5071472;28;20109;-67
2022/11/28 05:03:08;;;;;;;14.35;9.25;;;7.60;99.90;;;;;;5071147;28;20040;-66
2022/11/28 05:05:43;;;;;;;13.63;9.20;;;7.60;99.90;;;;;;5070381;28;20151;-66
2022/11/28 05:08:08;;;;;;;17.40;9.52;;;7.70;99.90;;;;;;5071425;28;20129;-67
2022/11/28 05:10:34;;;;;;;15.40;9.85;;;7.70;99.90;;;;;;5071511;28;20068;-67
2022/11/28 05:13:00;;;;;;;16.75;9.75;;;7.70;99.90;;;;;;5069360;28;20117;-67
2022/11/28 05:15:25;;;;;;;16.27;9.88;;;7.70;99.90;;;;;;5052354;28;20111;-67
2022/11/28 05:17:51;;;;;;;12.63;9.57;;;7.70;99.90;;;;;;5071211;28;20048;-67
2022/11/28 05:20:16;;;;;;;17.85;10.57;;;7.70;99.90;;;;;;5071324;28;20063;-66
2022/11/28 05:22:42;;;;;;;14.82;10.30;;;7.70;99.90;;;;;;5071005;28;20036;-67
2022/11/28 05:25:08;;;;;;;17.73;10.98;;;7.70;99.90;;;;;;5070021;28;20044;-66
2022/11/28 05:27:33;;;;;;;16.05;10.65;;;7.70;99.90;;;;;;5070948;28;20123;-66
2022/11/28 05:29:59;;;;;;;16.95;10.63;;;7.70;99.90;;;;;;5071111;28;20037;-67
2022/11/28 05:32:27;;;;;;;14.48;10.30;;;7.70;99.90;;;;;;5071190;28;20468;-67
2022/11/28 05:34:53;;;;;;;17.52;11.43;;;7.80;99.90;;;;;;5070080;28;20036;-67
2022/11/28 05:37:18;;;;;;;18.08;11.82;;;7.80;99.90;;;;;;5071055;28;20043;-67
2022/11/28 05:39:44;;;;;;;15.82;10.68;;;7.80;99.90;;;;;;5069291;28;20397;-67
2022/11/28 05:42:09;;;;;;;16.45;9.75;;;7.80;99.90;;;;;;5070563;28;20056;-67
2022/11/28 05:44:35;;;;;;;18.25;10.60;;;7.80;99.90;;;;;;5069990;28;20523;-67
2022/11/28 05:47:01;;;;;;;15.43;10.75;;;7.80;99.90;;;;;;5070936;28;20033;-67
2022/11/28 05:49:27;;;;;;;14.98;10.25;;;7.80;99.90;;;;;;5069681;28;20051;-67
2022/11/28 05:51:53;;;;;;;19.02;10.63;;;7.80;99.90;;;;;;5071002;28;20044;-67
2022/11/28 05:54:18;;;;;;;18.27;11.32;;;7.80;99.90;;;;;;5070089;28;20457;-67
2022/11/28 05:56:44;;;;;;;22.67;11.05;;;7.80;99.90;;;;;;5070605;28;20043;-67
2022/11/28 05:59:11;;;;;;;17.30;11.18;;;7.80;99.90;;;;;;5070680;28;20098;-67
2022/11/28 06:01:36;;;;;;;17.20;10.93;;;7.90;99.90;;;;;;5070818;28;20048;-67
2022/11/28 06:04:02;;;;;;;13.60;9.23;;;7.80;99.90;;;;;;5070016;28;20577;-67
2022/11/28 06:06:30;;;;;;;20.88;11.98;;;7.80;99.90;;;;;;5069516;28;20123;-66
2022/11/28 06:08:56;;;;;;;16.33;10.15;;;7.80;99.90;;;;;;5070768;28;20567;-67
2022/11/28 06:11:23;;;;;;;16.08;9.82;;;7.90;99.90;;;;;;5070380;28;20112;-67
2022/11/28 06:13:49;;;;;;;16.85;9.77;;;7.90;99.90;;;;;;5069914;28;20044;-67
2022/11/28 06:16:18;;;;;;;14.68;8.95;;;7.80;99.90;;;;;;5070460;28;20040;-67
2022/11/28 06:18:44;;;;;;;13.32;9.30;;;7.90;99.90;;;;;;5070664;28;20036;-67
2022/11/28 06:21:11;;;;;;;14.45;8.77;;;7.90;99.90;;;;;;5070747;28;20048;-67
2022/11/28 06:23:37;;;;;;;14.27;8.93;;;7.90;99.90;;;;;;5070310;28;20044;-67
2022/11/28 06:26:05;;;;;;;14.98;9.10;;;7.90;99.90;;;;;;5069817;28;20076;-67
2022/11/28 06:28:31;;;;;;;14.05;8.80;;;7.90;99.90;;;;;;5070432;28;20044;-67
2022/11/28 06:30:57;;;;;;;11.98;8.73;;;7.90;99.90;;;;;;5070579;28;20123;-67
2022/11/28 06:33:23;;;;;;;15.20;9.43;;;7.90;99.90;;;;;;5070226;28;20124;-67
2022/11/28 06:35:48;;;;;;;12.18;8.43;;;7.90;99.90;;;;;;5071772;28;20041;-67
2022/11/28 06:38:14;;;;;;;14.27;8.35;;;7.90;99.90;;;;;;5074123;28;20086;-66
2022/11/28 06:40:39;;;;;;;12.45;8.60;;;7.90;99.90;;;;;;5073944;28;20041;-67
2022/11/28 06:43:05;;;;;;;14.02;8.02;;;7.90;99.90;;;;;;5074198;28;20056;-67
2022/11/28 06:45:33;;;;;;;11.07;7.95;;;7.90;99.90;;;;;;5073343;28;20446;-67
2022/11/28 06:48:00;;;;;;;12.90;8.77;;;7.90;99.90;;;;;;5073966;28;20119;-67
2022/11/28 06:50:25;;;;;;;12.73;7.68;;;7.90;99.90;;;;;;5055942;28;20053;-67
2022/11/28 06:52:53;;;;;;;12.82;8.50;;;7.90;99.90;;;;;;5073763;28;20037;-67
2022/11/28 06:55:19;;;;;;;11.27;7.63;;;7.90;99.90;;;;;;5073104;28;20043;-67
2022/11/28 06:57:44;;;;;;;16.92;9.20;;;7.90;99.90;;;;;;5073771;28;20044;-67
2022/11/28 07:00:10;;;;;;;14.02;8.32;;;7.80;99.90;;;;;;5073593;28;20044;-67
2022/11/28 07:02:36;;;;;;;15.25;8.43;;;7.90;99.90;;;;;;5073642;28;20036;-67
2022/11/28 07:05:02;;;;;;;14.13;8.68;;;7.90;99.90;;;;;;5072606;28;20105;-67
2022/11/28 07:07:27;;;;;;;12.13;8.30;;;7.90;99.90;;;;;;5073264;28;20063;-66
2022/11/28 07:09:53;;;;;;;12.90;8.27;;;7.90;99.90;;;;;;5073244;28;20120;-66
2022/11/28 07:12:18;;;;;;;11.75;8.13;;;7.90;99.90;;;;;;5071740;28;20086;-66
2022/11/28 07:14:44;;;;;;;12.93;8.20;;;7.80;99.90;;;;;;5072591;28;20036;-67
2022/11/28 07:17:09;;;;;;;13.73;8.02;;;7.90;99.90;;;;;;5073239;28;20504;-66
2022/11/28 07:19:35;;;;;;;13.48;8.10;;;7.90;99.90;;;;;;5073352;28;20550;-66
2022/11/28 07:22:00;;;;;;;12.05;8.18;;;7.80;99.90;;;;;;5073376;28;20435;-66
2022/11/28 07:24:26;;;;;;;12.15;8.23;;;7.90;99.90;;;;;;5072522;28;20248;-66
2022/11/28 07:26:52;;;;;;;12.68;7.97;;;7.80;99.90;;;;;;5073130;28;20090;-66
2022/11/28 07:29:18;;;;;;;13.57;8.45;;;7.80;99.90;;;;;;5073096;28;20123;-66
2022/11/28 07:31:44;;;;;;;14.15;8.32;;;7.90;99.90;;;;;;5072847;28;20039;-66
2022/11/28 07:34:10;;;;;;;11.77;8.02;;;7.90;99.90;;;;;;5071957;28;20041;-67
2022/11/28 07:36:36;;;;;;;14.23;8.73;;;7.80;99.90;;;;;;5048814;28;20089;-67
2022/11/28 07:39:04;;;;;;;11.82;7.90;;;7.80;99.90;;;;;;5062083;28;20397;-66
2022/11/28 07:41:30;;;;;;;11.60;8.60;;;7.80;99.90;;;;;;5061969;28;20127;-66
2022/11/28 07:44:01;;;;;;;10.68;8.00;;;7.90;99.90;;;;;;5067729;28;20115;-66
2022/11/28 07:46:29;;;;;;;11.38;8.05;;;7.90;99.90;;;;;;5070431;28;20075;-66
2022/11/28 07:48:55;;;;;;;9.80;7.35;;;7.80;99.90;;;;;;5071846;28;20048;-67
2022/11/28 07:51:26;;;;;;;14.80;9.18;;;7.90;99.90;;;;;;5067637;28;20039;-66
2022/11/28 07:53:53;;;;;;;12.63;8.40;;;7.90;99.90;;;;;;5066797;28;20051;-66
2022/11/28 07:56:21;;;;;;;12.02;7.65;;;7.90;99.90;;;;;;5070968;28;20048;-66
2022/11/28 07:58:47;;;;;;;13.88;8.32;;;7.90;99.90;;;;;;5069197;28;20063;-66
2022/11/28 08:01:18;;;;;;;13.90;8.70;;;7.90;99.90;;;;;;5067951;28;20036;-66
2022/11/28 08:03:44;;;;;;;13.70;8.25;;;7.90;99.90;;;;;;5059738;28;20405;-66
2022/11/28 08:06:11;;;;;;;12.27;8.25;;;7.90;99.90;;;;;;5060652;28;20048;-66
2022/11/28 08:08:38;;;;;;;11.00;7.72;;;7.90;99.90;;;;;;5057643;28;20040;-66
2022/11/28 08:11:06;;;;;;;11.63;8.93;;;7.90;99.90;;;;;;5058235;28;20510;-66
2022/11/28 08:13:32;;;;;;;10.88;7.45;;;8.20;99.90;;;;;;5060640;28;20091;-66
2022/11/28 08:15:57;;;;;;;13.55;9.00;;;8.10;99.90;;;;;;5063571;28;20048;-66
2022/11/28 08:18:23;;;;;;;15.07;9.90;;;8.00;99.90;;;;;;5069928;28;20043;-66
2022/11/28 08:20:49;;;;;;;14.45;8.88;;;8.00;99.90;;;;;;5068370;28;20262;-66
2022/11/28 08:23:14;;;;;;;13.60;8.63;;;8.00;99.90;;;;;;5068225;28;20044;-66
2022/11/28 08:25:40;;;;;;;10.70;8.55;;;7.90;99.90;;;;;;5067226;28;20123;-66
2022/11/28 08:28:06;;;;;;;12.50;9.23;;;7.90;99.90;;;;;;5065198;28;20040;-66
2022/11/28 08:30:31;;;;;;;14.27;9.18;;;7.90;99.90;;;;;;5053365;28;20451;-67
2022/11/28 08:32:57;;;;;;;12.77;8.65;;;7.90;99.90;;;;;;5034179;28;20460;-67
2022/11/28 08:35:22;;;;;;;12.85;8.95;;;8.00;99.90;;;;;;5051056;28;20033;-67
2022/11/28 08:37:48;;;;;;;15.05;9.32;;;8.00;99.90;;;;;;5052093;28;20462;-67
2022/11/28 08:40:14;;;;;;;12.05;9.13;;;7.90;99.90;;;;;;5051799;28;20055;-69
2022/11/28 08:42:40;;;;;;;7.90;5.22;;;7.90;99.90;;;;;;5051602;28;20485;-68
2022/11/28 08:45:06;;;;;;;19.35;11.38;;;8.50;99.90;;;;;;5050858;28;20051;-67
2022/11/28 08:47:32;;;;;;;17.02;10.82;;;8.50;99.90;;;;;;5050398;28;20541;-68
2022/11/28 08:49:58;;;;;;;15.45;10.35;;;8.40;99.90;;;;;;5051793;28;20133;-67
2022/11/28 08:52:24;;;;;;;13.68;8.80;;;8.20;99.90;;;;;;5051625;28;20116;-68
2022/11/28 08:54:50;;;;;;;13.93;9.63;;;8.20;99.90;;;;;;5050872;28;20045;-67
2022/11/28 08:57:15;;;;;;;12.05;8.27;;;8.10;99.90;;;;;;5051175;28;20423;-67
2022/11/28 08:59:41;;;;;;;11.75;8.70;;;8.10;99.90;;;;;;5050863;28;20066;-68
2022/11/28 09:02:10;;;;;;;12.52;9.30;;;8.00;99.90;;;;;;5051475;28;20041;-67
2022/11/28 09:04:35;;;;;;;14.70;8.88;;;8.00;99.90;;;;;;5032729;28;20394;-68
2022/11/28 09:07:01;;;;;;;12.43;8.88;;;8.10;99.90;;;;;;5051437;28;20048;-70
2022/11/28 09:09:28;;;;;;;14.80;9.30;;;8.00;99.90;;;;;;5049942;28;20582;-70
2022/11/28 09:11:53;;;;;;;13.35;9.18;;;8.00;99.90;;;;;;5051163;28;20041;-70
2022/11/28 09:14:19;;;;;;;10.55;8.10;;;8.00;99.90;;;;;;5050604;28;20043;-67
2022/11/28 09:16:44;;;;;;;14.18;9.23;;;8.00;99.90;;;;;;5062447;28;20505;-68
2022/11/28 09:19:10;;;;;;;13.95;9.13;;;8.00;99.90;;;;;;5071280;28;20067;-67
2022/11/28 09:21:36;;;;;;;16.10;8.77;;;8.00;99.90;;;;;;5071074;28;20051;-69
2022/11/28 09:24:02;;;;;;;12.73;8.45;;;8.00;99.90;;;;;;5052085;28;20422;-67
2022/11/28 09:26:28;;;;;;;15.77;9.88;;;8.00;99.90;;;;;;5071427;28;20131;-67
2022/11/28 09:28:54;;;;;;;13.75;9.40;;;8.00;99.90;;;;;;5071085;28;20040;-68
2022/11/28 09:31:20;;;;;;;14.48;9.85;;;8.00;99.90;;;;;;5069810;28;20098;-68
2022/11/28 09:33:47;;;;;;;15.88;9.50;;;8.00;99.90;;;;;;5070112;28;20485;-68
2022/11/28 09:36:17;;;;;;;14.55;10.63;;;8.00;99.90;;;;;;5071063;28;20045;-67
2022/11/28 09:38:43;;;;;;;13.10;9.25;;;8.00;99.90;;;;;;5070733;28;20044;-67
2022/11/28 09:41:23;;;;;;;16.50;9.27;;;8.00;99.90;;;;;;5070956;28;20045;-67
2022/11/28 09:43:49;;;;;;;14.88;10.00;;;8.00;99.90;;;;;;5069989;28;20064;-68
2022/11/28 09:46:21;;;;;;;15.52;10.07;;;8.00;99.90;;;;;;5070591;28;20576;-67
2022/11/28 09:48:51;;;;;;;14.82;9.35;;;8.00;99.90;;;;;;5069103;28;20048;-67
2022/11/28 09:51:33;;;;;;;13.32;9.43;;;8.00;99.90;;;;;;5070571;28;20037;-67
2022/11/28 09:54:24;;;;;;;15.80;9.73;;;8.00;99.90;;;;;;5069745;28;20041;-67
2022/11/28 09:56:49;;;;;;;14.98;9.68;;;8.00;99.90;;;;;;5070924;28;20055;-67
2022/11/28 09:59:27;;;;;;;18.27;11.38;;;8.00;99.90;;;;;;5070402;28;20054;-67
2022/11/28 10:02:25;;;;;;;19.52;11.90;;;8.00;99.90;;;;;;5069304;28;20119;-67
2022/11/28 10:05:23;;;;;;;18.90;10.15;;;8.00;99.90;;;;;;5053862;28;20559;-67
2022/11/28 10:08:01;;;;;;;15.48;10.57;;;8.00;99.90;;;;;;5070797;28;20055;-67
2022/11/28 10:10:53;;;;;;;17.17;10.00;;;8.00;99.90;;;;;;5072247;28;20059;-67
2022/11/28 10:13:58;;;;;;;13.63;10.55;;;8.00;99.90;;;;;;5072904;28;20041;-67
2022/11/28 10:16:51;;;;;;;14.40;9.95;;;8.10;99.90;;;;;;5056458;28;20524;-67
2022/11/28 10:19:21;;;;;;;17.60;10.10;;;8.10;99.90;;;;;;5074381;28;20091;-67
2022/11/28 10:21:51;;;;;;;15.23;10.25;;;8.10;99.90;;;;;;5074112;28;20098;-66
2022/11/28 10:24:39;;;;;;;12.75;9.38;;;8.10;99.90;;;;;;5073607;28;20072;-67
2022/11/28 10:27:06;;;;;;;14.13;9.38;;;8.10;99.90;;;;;;5056227;28;20055;-66
2022/11/28 10:29:35;;;;;;;11.68;8.65;;;8.10;99.90;;;;;;5056023;28;20160;-67
2022/11/28 10:32:03;;;;;;;10.75;8.20;;;8.10;99.90;;;;;;5074141;28;20086;-68
2022/11/28 10:34:36;;;;;;;12.32;7.85;;;8.20;99.90;;;;;;5073452;28;20043;-69
2022/11/28 10:37:25;;;;;;;15.57;8.73;;;8.20;99.90;;;;;;5074156;28;20403;-67
2022/11/28 10:39:51;;;;;;;10.98;7.97;;;8.20;99.90;;;;;;5073982;28;20094;-66
2022/11/28 10:42:43;;;;;;;12.85;8.52;;;8.20;99.90;;;;;;5073712;28;20424;-66
2022/11/28 10:45:44;;;;;;;14.35;8.93;;;8.20;99.90;;;;;;5073032;28;20481;-67
2022/11/28 10:48:18;;;;;;;10.63;8.02;;;8.20;99.90;;;;;;5072367;28;20417;-66
2022/11/28 10:51:21;;;;;;;14.25;8.27;;;8.20;99.90;;;;;;5073961;28;20456;-66
2022/11/28 10:54:15;;;;;;;11.48;7.95;;;8.30;99.90;;;;;;5054828;28;20044;-67
2022/11/28 10:57:05;;;;;;;12.10;8.23;;;8.30;99.90;;;;;;5073684;28;20040;-65
2022/11/28 11:00:00;;;;;;;9.45;7.15;;;8.30;99.90;;;;;;5072411;28;20053;-67
2022/11/28 11:02:36;;;;;;;10.77;7.60;;;8.20;99.90;;;;;;5067435;28;20413;-66
2022/11/28 11:05:04;;;;;;;11.43;7.80;;;8.30;99.90;;;;;;5065862;28;20064;-66
2022/11/28 11:07:31;;;;;;;10.05;7.70;;;8.20;99.90;;;;;;5072355;28;20044;-67
2022/11/28 11:10:19;;;;;;;12.27;7.40;;;8.30;99.90;;;;;;5065111;28;20079;-67
2022/11/28 11:12:46;;;;;;;11.55;8.07;;;8.30;99.90;;;;;;5073275;28;20036;-67
2022/11/28 11:15:19;;;;;;;11.20;7.40;;;8.30;99.90;;;;;;5070972;28;20043;-67
2022/11/28 11:17:50;;;;;;;12.55;7.55;;;8.30;99.90;;;;;;5073276;28;20048;-68
2022/11/28 11:20:27;;;;;;;9.63;7.50;;;8.30;99.90;;;;;;5072943;28;20068;-69
2022/11/28 11:22:58;;;;;;;10.73;7.45;;;8.30;99.90;;;;;;5073276;28;20127;-69
2022/11/28 11:25:27;;;;;;;13.43;8.05;;;8.30;99.90;;;;;;5072106;28;20683;-69
2022/11/28 11:27:59;;;;;;;10.10;7.75;;;8.30;99.90;;;;;;5072642;28;20494;-70
2022/11/28 11:30:32;;;;;;;10.63;6.85;;;8.30;99.90;;;;;;5054926;28;20056;-69
2022/11/28 11:32:59;;;;;;;10.88;7.32;;;8.40;99.90;;;;;;5071669;28;20037;-67
2022/11/28 11:35:46;;;;;;;10.35;6.85;;;8.40;99.90;;;;;;5072080;28;20041;-67
2022/11/28 11:38:17;;;;;;;13.70;9.40;;;8.40;99.90;;;;;;5071838;28;20512;-66
2022/11/28 11:40:43;;;;;;;11.68;7.80;;;8.40;99.90;;;;;;5071475;28;20044;-67
2022/11/28 11:43:30;;;;;;;12.77;8.80;;;8.40;99.90;;;;;;5073087;28;20040;-67
2022/11/28 11:46:15;;;;;;;12.30;7.47;;;8.40;99.90;;;;;;5071574;28;20054;-66
2022/11/28 11:48:46;;;;;;;10.10;6.85;;;8.30;99.90;;;;;;5072910;28;20046;-66
2022/11/28 11:51:27;;;;;;;11.57;7.38;;;8.40;99.90;;;;;;5072732;28;20033;-67
2022/11/28 11:54:13;;;;;;;9.20;7.45;;;8.30;99.90;;;;;;5071813;28;20501;-67
2022/11/28 11:56:43;;;;;;;9.77;7.57;;;8.30;99.90;;;;;;5072502;28;20052;-66
2022/11/28 11:59:40;;;;;;;9.73;6.60;;;8.30;99.90;;;;;;5072455;28;20091;-66
2022/11/28 12:02:22;;;;;;;12.30;7.40;;;8.40;99.90;;;;;;5072668;28;20396;-66
2022/11/28 12:04:53;;;;;;;7.90;6.30;;;8.30;99.90;;;;;;5071788;28;20066;-66
2022/11/28 12:07:39;;;;;;;10.95;7.65;;;8.30;99.90;;;;;;5070796;28;20411;-66
2022/11/28 12:10:11;;;;;;;9.88;7.00;;;8.30;99.90;;;;;;5064731;28;20131;-66
2022/11/28 12:12:37;;;;;;;9.68;7.05;;;8.40;99.90;;;;;;5072138;28;20504;-66
2022/11/28 12:15:10;;;;;;;8.95;7.07;;;8.30;99.90;;;;;;5070935;28;20050;-66
2022/11/28 12:18:19;;;;;;;10.50;7.20;;;8.30;99.90;;;;;;5070770;28;20044;-66
2022/11/28 12:21:03;;;;;;;11.18;7.28;;;8.40;99.90;;;;;;5054751;28;20056;-66
2022/11/28 12:24:05;;;;;;;8.57;6.47;;;8.40;99.90;;;;;;5062446;28;20041;-66
2022/11/28 12:27:17;;;;;;;8.50;6.68;;;8.40;99.90;;;;;;5052018;28;20049;-66
2022/11/28 12:29:52;;;;;;;10.43;7.03;;;8.40;99.90;;;;;;5050849;28;20057;-67
2022/11/28 12:32:43;;;;;;;9.15;6.95;;;8.40;99.90;;;;;;5051731;28;20037;-67
2022/11/28 12:35:17;;;;;;;10.52;7.03;;;8.40;99.90;;;;;;5051137;28;20077;-68
2022/11/28 12:38:12;;;;;;;10.63;6.00;;;8.40;99.90;;;;;;5051993;28;20036;-69
2022/11/28 12:41:12;;;;;;;11.07;6.30;;;8.40;99.90;;;;;;5057596;28;20040;-69
2022/11/28 12:43:56;;;;;;;8.27;6.25;;;8.50;99.90;;;;;;5071812;28;20032;-67
2022/11/28 12:46:49;;;;;;;8.43;6.57;;;8.40;99.90;;;;;;5071504;28;20037;-68
2022/11/28 12:49:33;;;;;;;7.97;6.40;;;8.50;99.90;;;;;;5071491;28;20041;-69
2022/11/28 12:51:58;;;;;;;10.73;7.05;;;8.40;99.90;;;;;;5071867;28;20040;-69
2022/11/28 12:54:50;;;;;;;10.13;6.72;;;8.40;99.90;;;;;;5070710;28;20039;-69
2022/11/28 12:57:35;;;;;;;10.40;6.88;;;8.50;99.90;;;;;;5071492;28;20046;-69
2022/11/28 13:00:25;;;;;;;10.18;6.85;;;8.50;99.90;;;;;;5061839;28;20072;-69
2022/11/28 13:03:36;;;;;;;9.38;6.22;;;8.50;99.90;;;;;;5065715;28;20060;-71
2022/11/28 13:06:01;;;;;;;9.90;6.32;;;8.50;99.90;;;;;;5067576;28;20040;-71
2022/11/28 13:08:44;;;;;;;8.05;5.82;;;8.50;99.90;;;;;;5070656;28;20040;-71
2022/11/28 13:11:22;;;;;;;;;;;8.50;99.90;;;;;;5071206;28;20042;-71
2022/11/28 13:14:05;;;;;;;10.82;7.13;;;8.50;99.90;;;;;;5069607;28;19916;-70
2022/11/28 13:16:49;;;;;;;11.20;6.90;;;8.50;99.90;;;;;;5069786;28;20037;-70